Time;durP1;ratioP1;P1;durP2;ratioP2;P2;SDS_P1;SDS_P2;PMS_P1;PMS_P2;Temp;Humidity;BMP_temperature;BMP_pressure;BME280_temperature;BME280_humidity;BME280_pressure;Samples;Min_cycle;Max_cycle;Signal;HPM_P1;HPM_P2
2022/10/25 00:02:18;;;;;;;3.33;0.70;;;27.30;93.00;;;;;;5004415;28;20018;-46
2022/10/25 00:04:45;;;;;;;4.95;0.80;;;27.40;93.30;;;;;;5002146;28;20209;-40
2022/10/25 00:07:12;;;;;;;2.47;0.70;;;27.40;93.30;;;;;;5002908;28;20037;-42
2022/10/25 00:09:38;;;;;;;2.95;0.80;;;27.40;93.20;;;;;;5004971;28;20097;-46
2022/10/25 00:12:05;;;;;;;4.47;0.70;;;27.40;93.30;;;;;;5004287;28;20018;-43
2022/10/25 00:14:32;;;;;;;3.15;0.90;;;27.40;93.20;;;;;;5003169;28;20246;-46
2022/10/25 00:17:01;;;;;;;1.92;0.90;;;27.30;93.50;;;;;;5001471;28;20090;-49
2022/10/25 00:19:28;;;;;;;3.70;0.90;;;27.30;93.60;;;;;;5004388;28;20042;-43
2022/10/25 00:21:55;;;;;;;4.93;1.00;;;27.30;93.70;;;;;;5004132;28;20033;-44
2022/10/25 00:24:21;;;;;;;4.60;0.90;;;27.30;93.80;;;;;;5004247;28;20085;-44
2022/10/25 00:26:50;;;;;;;2.58;1.10;;;27.30;93.90;;;;;;5002223;28;20054;-46
2022/10/25 00:29:17;;;;;;;2.53;0.90;;;27.30;93.90;;;;;;5023898;28;20097;-43
2022/10/25 00:31:44;;;;;;;3.80;1.13;;;27.30;94.00;;;;;;5007298;28;20370;-43
2022/10/25 00:34:11;;;;;;;3.10;1.13;;;27.30;94.00;;;;;;5004348;28;20362;-44
2022/10/25 00:36:38;;;;;;;4.32;1.20;;;27.30;94.00;;;;;;5004339;28;20030;-43
2022/10/25 00:39:04;;;;;;;3.20;1.10;;;27.30;93.90;;;;;;5037367;28;20030;-44
2022/10/25 00:41:33;;;;;;;4.10;1.10;;;27.30;93.90;;;;;;5005562;28;20060;-44
2022/10/25 00:44:56;;;;;;;3.47;1.10;;;27.30;93.90;;;;;;5008241;28;20040;-46
2022/10/25 00:47:25;;;;;;;2.35;0.93;;;27.30;93.90;;;;;;4928952;29;20249;-44
2022/10/25 00:50:19;;;;;;;3.08;1.00;;;27.30;93.90;;;;;;4928254;29;20040;-52
2022/10/25 00:52:50;;;;;;;2.22;0.90;;;27.30;93.90;;;;;;4998265;28;20199;-48
2022/10/25 00:55:20;;;;;;;2.55;0.80;;;27.30;93.90;;;;;;5003150;28;20034;-43
2022/10/25 00:58:13;;;;;;;2.75;0.60;;;27.20;93.90;;;;;;5004804;28;20034;-46
2022/10/25 01:00:39;;;;;;;;;;;27.20;94.00;;;;;;5023247;28;20066;-43
2022/10/25 01:03:06;;;;;;;1.83;0.80;;;27.10;94.00;;;;;;5001895;28;19944;-45
2022/10/25 01:05:37;;;;;;;2.90;0.80;;;27.10;94.10;;;;;;5004912;28;20069;-45
2022/10/25 01:08:05;;;;;;;3.57;0.87;;;27.10;94.10;;;;;;5004731;28;20334;-43
2022/10/25 01:10:32;;;;;;;1.48;0.60;;;27.00;94.20;;;;;;4999706;28;20030;-43
2022/10/25 01:13:01;;;;;;;3.50;0.73;;;27.00;94.20;;;;;;4999377;28;20036;-46
2022/10/25 01:15:59;;;;;;;4.53;0.93;;;27.00;94.30;;;;;;5015446;28;20062;-44
2022/10/25 01:18:52;;;;;;;1.90;0.80;;;27.00;94.30;;;;;;4995892;28;20038;-48
2022/10/25 01:21:37;;;;;;;1.75;0.60;;;26.90;94.30;;;;;;4987182;28;20027;-42
2022/10/25 01:24:27;;;;;;;3.97;0.90;;;26.90;94.30;;;;;;4988325;28;20369;-48
2022/10/25 01:27:10;;;;;;;2.40;0.73;;;27.00;94.10;;;;;;4987384;28;20053;-46
2022/10/25 01:30:11;;;;;;;2.67;0.60;;;27.10;93.90;;;;;;5002202;28;20202;-45
2022/10/25 01:33:03;;;;;;;3.25;0.82;;;27.10;93.80;;;;;;5001945;28;20302;-47
2022/10/25 01:35:34;;;;;;;2.58;0.98;;;27.20;93.80;;;;;;5001919;28;20065;-47
2022/10/25 01:38:21;;;;;;;2.53;0.82;;;27.20;93.70;;;;;;5001411;28;20078;-49
2022/10/25 01:41:10;;;;;;;2.00;0.70;;;27.20;93.50;;;;;;5007247;28;20034;-49
2022/10/25 01:43:42;;;;;;;4.45;1.10;;;27.20;93.50;;;;;;5006694;28;20031;-48
2022/10/25 01:46:25;;;;;;;1.92;0.77;;;27.30;93.40;;;;;;5003667;28;20046;-43
2022/10/25 01:49:05;;;;;;;1.97;0.53;;;27.30;93.40;;;;;;5023483;28;20045;-47
2022/10/25 01:51:36;;;;;;;1.92;0.50;;;27.30;93.30;;;;;;5003134;28;20362;-43
2022/10/25 01:54:19;;;;;;;1.63;0.60;;;27.30;93.30;;;;;;5003222;28;20053;-42
2022/10/25 01:57:24;;;;;;;1.67;0.50;;;27.30;93.20;;;;;;5034423;28;20029;-47
2022/10/25 02:00:10;;;;;;;1.70;0.40;;;27.30;93.10;;;;;;4987259;28;20027;-47
2022/10/25 02:03:14;;;;;;;1.63;0.80;;;27.30;93.10;;;;;;4992598;28;20030;-48
2022/10/25 02:06:02;;;;;;;1.15;0.60;;;27.30;93.00;;;;;;5005725;28;20214;-43
2022/10/25 02:08:49;;;;;;;1.20;0.60;;;27.30;92.90;;;;;;5004188;28;20053;-47
2022/10/25 02:11:30;;;;;;;1.40;0.50;;;27.30;93.10;;;;;;5000914;28;20318;-50
2022/10/25 02:14:38;;;;;;;2.65;0.47;;;27.30;93.00;;;;;;5006171;28;20030;-43
2022/10/25 02:17:11;;;;;;;5.80;0.60;;;27.30;92.90;;;;;;4998853;28;20081;-51
2022/10/25 02:19:43;;;;;;;0.70;0.40;;;27.30;93.10;;;;;;5007130;28;20211;-43
2022/10/25 02:22:11;;;;;;;0.88;0.50;;;27.30;92.80;;;;;;5006673;28;20042;-41
2022/10/25 02:24:42;;;;;;;1.25;0.60;;;27.30;92.80;;;;;;5005831;28;20062;-45
2022/10/25 02:27:11;;;;;;;1.70;0.80;;;27.30;92.80;;;;;;5006321;28;20088;-42
2022/10/25 02:29:38;;;;;;;2.45;1.20;;;27.30;92.80;;;;;;5006011;28;20077;-42
2022/10/25 02:32:05;;;;;;;2.65;1.20;;;27.30;92.80;;;;;;5006008;28;20029;-48
2022/10/25 02:34:33;;;;;;;4.45;1.42;;;27.30;92.70;;;;;;5006661;28;20027;-43
2022/10/25 02:37:00;;;;;;;2.38;0.90;;;27.30;92.80;;;;;;5003686;28;20018;-45
2022/10/25 02:39:28;;;;;;;2.28;0.77;;;27.30;92.80;;;;;;5005021;28;20056;-49
2022/10/25 02:41:55;;;;;;;2.88;0.70;;;27.30;92.80;;;;;;5004446;28;20049;-45
2022/10/25 02:44:21;;;;;;;3.55;0.80;;;27.30;92.80;;;;;;5005111;28;20082;-46
2022/10/25 02:46:48;;;;;;;3.92;0.90;;;27.30;92.80;;;;;;5006010;28;20029;-43
2022/10/25 02:49:15;;;;;;;2.22;0.43;;;27.30;92.80;;;;;;5006523;28;20206;-45
2022/10/25 02:51:41;;;;;;;3.03;0.40;;;27.30;92.80;;;;;;5006155;28;20030;-43
2022/10/25 02:54:08;;;;;;;2.40;0.50;;;27.30;92.90;;;;;;5006420;28;20034;-49
2022/10/25 02:56:34;;;;;;;1.08;0.40;;;27.30;92.90;;;;;;5005705;28;20022;-45
2022/10/25 02:59:01;;;;;;;1.20;0.30;;;27.20;92.90;;;;;;5005402;28;20030;-44
2022/10/25 03:01:27;;;;;;;1.10;0.38;;;27.20;92.90;;;;;;5005482;28;20027;-42
2022/10/25 03:03:54;;;;;;;4.38;0.30;;;27.20;92.90;;;;;;5005979;28;20053;-47
2022/10/25 03:06:21;;;;;;;2.67;0.30;;;27.20;92.90;;;;;;5005556;28;20030;-45
2022/10/25 03:08:50;;;;;;;1.10;0.20;;;27.20;92.90;;;;;;5005993;28;20038;-43
2022/10/25 03:11:16;;;;;;;2.83;0.30;;;27.20;92.90;;;;;;5005558;28;20229;-46
2022/10/25 03:13:43;;;;;;;1.88;0.30;;;27.20;93.00;;;;;;5005654;28;20030;-44
2022/10/25 03:16:10;;;;;;;3.83;0.30;;;27.20;93.00;;;;;;5005488;28;20034;-43
2022/10/25 03:18:37;;;;;;;1.95;0.20;;;27.20;93.00;;;;;;5005615;28;20219;-50
2022/10/25 03:21:05;;;;;;;2.95;0.32;;;27.20;93.00;;;;;;5005360;28;20125;-46
2022/10/25 03:23:32;;;;;;;2.15;0.28;;;27.20;93.00;;;;;;5005559;28;20317;-42
2022/10/25 03:26:00;;;;;;;3.25;0.20;;;27.20;93.00;;;;;;5005521;28;20021;-50
2022/10/25 03:28:27;;;;;;;1.08;0.30;;;27.20;93.10;;;;;;5004986;28;20093;-47
2022/10/25 03:30:56;;;;;;;2.17;0.20;;;27.10;93.10;;;;;;5005341;28;20234;-43
2022/10/25 03:33:24;;;;;;;3.40;0.30;;;27.10;93.10;;;;;;5005294;28;20034;-47
2022/10/25 03:35:52;;;;;;;1.48;0.10;;;27.10;93.10;;;;;;5003845;28;20030;-42
2022/10/25 03:38:19;;;;;;;3.22;0.30;;;27.10;93.10;;;;;;5005230;28;20030;-46
2022/10/25 03:40:45;;;;;;;3.15;0.38;;;27.10;93.10;;;;;;5004945;28;20049;-51
2022/10/25 03:43:12;;;;;;;1.63;0.17;;;27.10;93.10;;;;;;5005081;28;20050;-45
2022/10/25 03:45:40;;;;;;;1.05;0.20;;;27.10;93.10;;;;;;5004964;28;20026;-48
2022/10/25 03:48:06;;;;;;;2.45;0.15;;;27.10;93.10;;;;;;5004958;28;20034;-49
2022/10/25 03:50:34;;;;;;;1.02;0.10;;;27.10;93.10;;;;;;5004959;28;20030;-48
2022/10/25 03:53:02;;;;;;;1.05;0.10;;;27.10;93.30;;;;;;5004786;28;20030;-46
2022/10/25 03:55:28;;;;;;;3.50;0.40;;;27.10;93.10;;;;;;5004687;28;20142;-47
2022/10/25 03:57:55;;;;;;;2.08;0.15;;;27.10;93.20;;;;;;5004979;28;20285;-45
2022/10/25 04:00:21;;;;;;;2.75;0.20;;;27.10;93.10;;;;;;5004933;28;20260;-43
2022/10/25 04:02:53;;;;;;;1.50;0.20;;;27.10;93.10;;;;;;5004785;28;20028;-41
2022/10/25 04:05:20;;;;;;;1.80;0.30;;;27.10;93.10;;;;;;5004679;28;20030;-41
2022/10/25 04:07:47;;;;;;;1.13;0.10;;;27.10;93.10;;;;;;5004744;28;20054;-42
2022/10/25 04:10:13;;;;;;;2.53;0.20;;;27.10;93.10;;;;;;5004518;28;20199;-48
2022/10/25 04:12:40;;;;;;;3.45;0.20;;;27.00;93.10;;;;;;5002868;28;20034;-49
2022/10/25 04:15:07;;;;;;;4.07;0.40;;;27.00;93.20;;;;;;5004561;28;20021;-47
2022/10/25 04:17:34;;;;;;;3.58;0.30;;;27.00;93.20;;;;;;5004362;28;20134;-50
2022/10/25 04:20:00;;;;;;;2.08;0.30;;;27.00;93.20;;;;;;5004608;28;20058;-45
2022/10/25 04:22:27;;;;;;;3.83;0.40;;;27.00;93.10;;;;;;5004426;28;20326;-47
2022/10/25 04:24:53;;;;;;;0.47;0.20;;;27.00;93.20;;;;;;5004581;28;20150;-48
2022/10/25 04:27:20;;;;;;;5.22;0.40;;;27.00;93.20;;;;;;5004183;28;20274;-46
2022/10/25 04:29:46;;;;;;;2.42;0.38;;;27.00;93.30;;;;;;5004317;28;20072;-45
2022/10/25 04:32:13;;;;;;;5.70;0.43;;;27.00;93.30;;;;;;5004427;28;20022;-42
2022/10/25 04:34:39;;;;;;;2.92;0.32;;;27.00;93.30;;;;;;5004754;28;20039;-42
2022/10/25 04:37:06;;;;;;;1.95;0.30;;;27.00;93.40;;;;;;5004342;28;20032;-50
2022/10/25 04:39:33;;;;;;;3.20;0.30;;;27.00;93.40;;;;;;5004786;28;20033;-44
2022/10/25 04:41:59;;;;;;;2.90;0.40;;;26.90;93.40;;;;;;5004095;28;20030;-56
2022/10/25 04:44:26;;;;;;;2.92;0.50;;;26.90;93.30;;;;;;5004651;28;20034;-47
2022/10/25 04:46:52;;;;;;;3.15;0.50;;;26.90;93.40;;;;;;5004023;28;20235;-48
2022/10/25 04:49:19;;;;;;;1.75;0.25;;;26.90;93.60;;;;;;5003600;28;20105;-47
2022/10/25 04:51:45;;;;;;;2.63;0.20;;;26.90;93.70;;;;;;5004283;28;20018;-51
2022/10/25 04:54:12;;;;;;;5.88;0.30;;;26.90;93.60;;;;;;5004652;28;20031;-50
2022/10/25 04:56:39;;;;;;;2.08;0.28;;;26.90;93.70;;;;;;5004085;28;20094;-47
2022/10/25 04:59:05;;;;;;;1.48;0.22;;;26.90;93.70;;;;;;5004461;28;20041;-54
2022/10/25 05:01:32;;;;;;;4.00;0.30;;;26.90;93.70;;;;;;5004243;28;20030;-49
2022/10/25 05:03:58;;;;;;;2.75;0.30;;;26.90;93.70;;;;;;5004323;28;20210;-45
2022/10/25 05:06:26;;;;;;;3.33;0.25;;;26.90;93.80;;;;;;5004114;28;20030;-43
2022/10/25 05:08:53;;;;;;;3.00;0.40;;;26.90;93.80;;;;;;5004702;28;20093;-43
2022/10/25 05:11:23;;;;;;;2.80;0.40;;;26.90;93.90;;;;;;5003905;28;20037;-43
2022/10/25 05:13:50;;;;;;;3.22;0.40;;;26.90;93.90;;;;;;5004249;28;20345;-43
2022/10/25 05:16:22;;;;;;;3.38;0.32;;;26.80;93.90;;;;;;5004139;28;20058;-42
2022/10/25 05:18:50;;;;;;;3.75;0.30;;;26.80;93.90;;;;;;5004094;28;20037;-45
2022/10/25 05:21:19;;;;;;;6.63;0.35;;;26.90;94.00;;;;;;5003969;28;20307;-43
2022/10/25 05:23:46;;;;;;;4.75;0.28;;;26.90;94.00;;;;;;5004200;28;20034;-44
2022/10/25 05:26:20;;;;;;;1.27;0.40;;;26.80;93.90;;;;;;5006712;28;20130;-43
2022/10/25 05:28:49;;;;;;;2.83;0.20;;;26.80;93.90;;;;;;5039055;28;20054;-40
2022/10/25 05:31:16;;;;;;;1.98;0.50;;;26.80;93.90;;;;;;5007350;28;20033;-46
2022/10/25 05:33:44;;;;;;;4.50;0.65;;;26.80;93.90;;;;;;5007642;28;20113;-48
2022/10/25 05:36:12;;;;;;;4.45;0.40;;;26.80;94.00;;;;;;5007410;28;20073;-42
2022/10/25 05:38:38;;;;;;;4.50;0.35;;;26.80;94.00;;;;;;5007498;28;20295;-45
2022/10/25 05:41:06;;;;;;;1.45;0.40;;;26.80;94.00;;;;;;5007340;28;20061;-46
2022/10/25 05:43:33;;;;;;;4.75;0.40;;;26.80;94.00;;;;;;5007481;28;20048;-45
2022/10/25 05:46:06;;;;;;;2.25;0.30;;;26.80;94.10;;;;;;5007131;28;20080;-46
2022/10/25 05:48:34;;;;;;;5.30;0.52;;;26.80;94.10;;;;;;5007312;28;20058;-44
2022/10/25 05:51:14;;;;;;;2.67;0.30;;;26.80;94.00;;;;;;5007168;28;20381;-45
2022/10/25 05:53:52;;;;;;;2.30;0.30;;;26.80;94.00;;;;;;5007283;28;20046;-51
2022/10/25 05:56:22;;;;;;;4.32;0.40;;;26.80;93.90;;;;;;5007289;28;20330;-48
2022/10/25 05:58:49;;;;;;;6.50;0.50;;;26.80;93.90;;;;;;5007209;28;20362;-46
2022/10/25 06:01:20;;;;;;;3.38;0.30;;;26.80;93.90;;;;;;5006953;28;20022;-47
2022/10/25 06:03:49;;;;;;;4.88;0.68;;;26.70;93.90;;;;;;5007232;28;20046;-41
2022/10/25 06:06:16;;;;;;;7.70;0.60;;;26.80;93.90;;;;;;5006730;28;20044;-41
2022/10/25 06:08:43;;;;;;;1.50;0.30;;;26.70;93.80;;;;;;5007070;28;20259;-48
2022/10/25 06:11:16;;;;;;;2.80;0.40;;;26.70;93.80;;;;;;5006801;28;20318;-45
2022/10/25 06:13:43;;;;;;;2.70;0.40;;;26.70;93.80;;;;;;5006569;28;20037;-47
2022/10/25 06:16:13;;;;;;;3.45;0.50;;;26.70;93.80;;;;;;5006666;28;20377;-47
2022/10/25 06:18:40;;;;;;;3.30;0.52;;;26.70;93.80;;;;;;5006805;28;20030;-43
2022/10/25 06:21:09;;;;;;;4.68;0.65;;;26.70;93.80;;;;;;5006601;28;20026;-45
2022/10/25 06:23:36;;;;;;;4.75;0.77;;;26.70;93.80;;;;;;5006797;28;20038;-48
2022/10/25 06:26:09;;;;;;;3.75;0.60;;;26.70;93.80;;;;;;5006343;28;20245;-40
2022/10/25 06:28:35;;;;;;;;;;;26.60;93.80;;;;;;5007048;28;20074;-42
2022/10/25 06:31:07;;;;;;;4.07;0.88;;;26.60;93.90;;;;;;5006434;28;19910;-42
2022/10/25 06:33:34;;;;;;;4.20;0.70;;;26.70;94.00;;;;;;5006174;28;20085;-44
2022/10/25 06:36:02;;;;;;;2.80;0.60;;;26.60;94.00;;;;;;5005952;28;20316;-48
2022/10/25 06:38:29;;;;;;;4.65;0.55;;;26.60;94.00;;;;;;5006429;28;20034;-50
2022/10/25 06:41:00;;;;;;;1.95;0.40;;;26.60;94.10;;;;;;5006070;28;20234;-49
2022/10/25 06:43:27;;;;;;;4.65;0.50;;;26.60;94.10;;;;;;5006387;28;20034;-41
2022/10/25 06:45:54;;;;;;;4.03;0.50;;;26.60;94.10;;;;;;5006112;28;20034;-42
2022/10/25 06:48:21;;;;;;;6.50;0.70;;;26.60;94.20;;;;;;5006078;28;20042;-46
2022/10/25 06:50:48;;;;;;;4.75;0.63;;;26.60;94.20;;;;;;5006269;28;20014;-42
2022/10/25 06:53:14;;;;;;;5.90;0.70;;;26.60;94.20;;;;;;5006544;28;20045;-49
2022/10/25 06:55:43;;;;;;;2.22;0.60;;;26.60;94.30;;;;;;5005826;28;20054;-43
2022/10/25 06:58:10;;;;;;;6.32;0.55;;;26.60;94.30;;;;;;5005975;28;20089;-47
2022/10/25 07:00:36;;;;;;;3.47;0.70;;;26.60;94.30;;;;;;5005840;28;20034;-42
2022/10/25 07:03:03;;;;;;;7.05;0.80;;;26.60;94.30;;;;;;5005826;28;20034;-45
2022/10/25 07:05:29;;;;;;;7.07;1.00;;;26.60;94.30;;;;;;5005793;28;20022;-48
2022/10/25 07:07:56;;;;;;;5.63;0.63;;;26.60;94.20;;;;;;5005969;28;20034;-41
2022/10/25 07:10:22;;;;;;;5.82;0.60;;;26.60;94.20;;;;;;5005547;28;20025;-47
2022/10/25 07:12:49;;;;;;;4.05;0.70;;;26.60;94.20;;;;;;5005827;28;20034;-42
2022/10/25 07:15:15;;;;;;;4.57;0.70;;;26.50;94.30;;;;;;5005505;28;20027;-45
2022/10/25 07:17:42;;;;;;;8.75;0.88;;;26.50;94.30;;;;;;5005338;28;20215;-45
2022/10/25 07:20:09;;;;;;;5.53;0.50;;;26.50;94.30;;;;;;5005620;28;20026;-42
2022/10/25 07:22:35;;;;;;;4.45;0.75;;;26.50;94.40;;;;;;5005396;28;20032;-44
2022/10/25 07:25:02;;;;;;;5.85;0.57;;;26.50;94.40;;;;;;5005304;28;20036;-41
2022/10/25 07:27:32;;;;;;;4.63;0.70;;;26.50;94.30;;;;;;5005082;28;20357;-43
2022/10/25 07:29:58;;;;;;;2.85;0.60;;;26.50;94.30;;;;;;5005296;28;20042;-41
2022/10/25 07:32:25;;;;;;;6.88;0.63;;;26.50;94.30;;;;;;5005031;28;20029;-46
2022/10/25 07:34:51;;;;;;;4.28;0.85;;;26.50;94.30;;;;;;5005226;28;20255;-43
2022/10/25 07:37:18;;;;;;;6.80;0.63;;;26.50;94.40;;;;;;5005212;28;20326;-41
2022/10/25 07:39:44;;;;;;;3.72;0.60;;;26.50;94.30;;;;;;5005057;28;20039;-46
2022/10/25 07:42:11;;;;;;;6.18;0.70;;;26.50;94.30;;;;;;5005043;28;20030;-43
2022/10/25 07:44:37;;;;;;;4.28;0.50;;;26.50;94.30;;;;;;5005593;28;20044;-43
2022/10/25 07:47:04;;;;;;;5.70;0.57;;;26.50;94.40;;;;;;5004324;28;20026;-43
2022/10/25 07:49:30;;;;;;;5.63;0.60;;;26.50;94.40;;;;;;5005183;28;20058;-44
2022/10/25 07:51:57;;;;;;;2.58;0.40;;;26.50;94.40;;;;;;5004959;28;20037;-45
2022/10/25 07:54:23;;;;;;;8.93;0.80;;;26.40;94.30;;;;;;5005334;28;20329;-45
2022/10/25 07:56:50;;;;;;;9.48;0.90;;;26.40;94.40;;;;;;5004753;28;20034;-46
2022/10/25 07:59:16;;;;;;;6.75;0.68;;;26.40;94.50;;;;;;5005177;28;20222;-43
2022/10/25 08:01:43;;;;;;;3.53;0.60;;;26.40;94.50;;;;;;5004769;28;20053;-41
2022/10/25 08:04:09;;;;;;;5.30;0.80;;;26.40;94.40;;;;;;5004965;28;20030;-48
2022/10/25 08:06:36;;;;;;;7.50;0.65;;;26.40;94.50;;;;;;5004697;28;20226;-45
2022/10/25 08:09:03;;;;;;;5.63;0.60;;;26.40;94.50;;;;;;5004978;28;20093;-47
2022/10/25 08:11:30;;;;;;;4.50;0.60;;;26.40;94.50;;;;;;5004435;28;20026;-44
2022/10/25 08:13:57;;;;;;;7.40;0.68;;;26.40;94.50;;;;;;5004834;28;20332;-44
2022/10/25 08:16:23;;;;;;;5.40;0.70;;;26.40;94.50;;;;;;5004598;28;20026;-42
2022/10/25 08:18:50;;;;;;;8.90;0.82;;;26.40;94.50;;;;;;5004731;28;20214;-42
2022/10/25 08:21:17;;;;;;;9.25;0.77;;;26.40;94.40;;;;;;5004593;28;20014;-42
2022/10/25 08:23:43;;;;;;;6.80;0.60;;;26.40;94.40;;;;;;5004757;28;20097;-48
2022/10/25 08:26:10;;;;;;;7.35;0.80;;;26.40;94.40;;;;;;5004335;28;20030;-43
2022/10/25 08:28:36;;;;;;;9.15;0.75;;;26.40;94.40;;;;;;5004458;28;20081;-41
2022/10/25 08:31:03;;;;;;;6.95;0.80;;;26.40;94.50;;;;;;5004413;28;20226;-43
2022/10/25 08:33:30;;;;;;;5.43;0.73;;;26.40;94.50;;;;;;5004440;28;20239;-48
2022/10/25 08:36:00;;;;;;;4.63;0.65;;;26.40;94.50;;;;;;5004350;28;20258;-42
2022/10/25 08:38:26;;;;;;;7.75;0.60;;;26.40;94.50;;;;;;5004507;28;20038;-44
2022/10/25 08:41:18;;;;;;;7.28;0.70;;;26.30;94.50;;;;;;5004237;28;20026;-46
2022/10/25 08:44:15;;;;;;;8.95;0.98;;;26.40;94.80;;;;;;5004251;28;20041;-44
2022/10/25 08:46:54;;;;;;;12.27;0.98;;;26.30;94.50;;;;;;5004282;28;20038;-42
2022/10/25 08:49:34;;;;;;;5.28;0.70;;;26.30;94.50;;;;;;5004126;28;20089;-42
2022/10/25 08:52:04;;;;;;;9.55;0.80;;;26.30;94.50;;;;;;5004582;28;20077;-42
2022/10/25 08:54:38;;;;;;;9.88;0.90;;;26.30;94.50;;;;;;5004465;28;20202;-43
2022/10/25 08:57:24;;;;;;;11.50;1.17;;;26.30;94.50;;;;;;5004216;28;20030;-44
2022/10/25 08:59:58;;;;;;;8.07;1.00;;;26.30;94.50;;;;;;5006521;28;20030;-46
2022/10/25 09:02:39;;;;;;;6.68;0.77;;;26.30;94.50;;;;;;5007890;28;20042;-44
2022/10/25 09:05:31;;;;;;;10.80;1.00;;;26.30;94.50;;;;;;5007872;28;20033;-44
2022/10/25 09:08:23;;;;;;;10.52;1.17;;;26.30;94.40;;;;;;5007878;28;20034;-49
2022/10/25 09:11:05;;;;;;;11.07;1.15;;;26.30;94.40;;;;;;5007993;28;20097;-51
2022/10/25 09:13:42;;;;;;;10.13;0.90;;;26.30;94.40;;;;;;5007863;28;20030;-49
2022/10/25 09:16:17;;;;;;;6.35;1.15;;;26.30;94.50;;;;;;5007799;28;20081;-41
2022/10/25 09:18:55;;;;;;;5.40;0.60;;;26.30;94.50;;;;;;5007824;28;20065;-46
2022/10/25 09:21:49;;;;;;;7.10;0.90;;;26.30;94.50;;;;;;5007608;28;20066;-46
2022/10/25 09:24:22;;;;;;;4.90;1.00;;;26.30;94.50;;;;;;5008009;28;20038;-50
2022/10/25 09:27:07;;;;;;;5.72;1.33;;;26.30;94.50;;;;;;5007449;28;20054;-46
2022/10/25 09:29:38;;;;;;;9.63;0.90;;;26.30;94.50;;;;;;5007989;28;20222;-42
2022/10/25 09:32:26;;;;;;;4.50;0.82;;;26.30;94.50;;;;;;5007396;28;20026;-45
2022/10/25 09:34:53;;;;;;;5.28;0.90;;;26.20;94.50;;;;;;5007660;28;20222;-48
2022/10/25 09:37:47;;;;;;;5.43;1.15;;;26.30;94.50;;;;;;5007361;28;20022;-47
2022/10/25 09:40:22;;;;;;;10.63;1.15;;;26.20;94.50;;;;;;4970981;28;20146;-50
2022/10/25 09:42:50;;;;;;;4.15;0.80;;;26.20;94.50;;;;;;5007198;28;20030;-48
2022/10/25 09:45:25;;;;;;;6.13;0.90;;;26.20;94.60;;;;;;5007163;28;20030;-41
2022/10/25 09:47:56;;;;;;;6.95;1.00;;;26.20;94.60;;;;;;5007351;28;20034;-41
2022/10/25 09:50:43;;;;;;;4.43;0.70;;;26.20;94.60;;;;;;5007078;28;20030;-41
2022/10/25 09:53:14;;;;;;;8.25;0.88;;;26.20;94.70;;;;;;5007303;28;20022;-41
2022/10/25 09:55:58;;;;;;;7.88;1.00;;;26.30;94.80;;;;;;5007265;28;20243;-48
2022/10/25 09:58:30;;;;;;;9.52;0.85;;;26.20;94.70;;;;;;5007265;28;20034;-48
2022/10/25 10:01:01;;;;;;;;;;;26.20;94.70;;;;;;5007179;28;20349;-47
2022/10/25 10:03:31;;;;;;;8.48;1.17;;;26.20;94.70;;;;;;5007273;28;19956;-42
2022/10/25 10:06:07;;;;;;;4.53;1.10;;;26.20;94.80;;;;;;5006912;28;20026;-51
2022/10/25 10:08:35;;;;;;;8.63;1.42;;;26.20;94.80;;;;;;5006943;28;20033;-44
2022/10/25 10:11:04;;;;;;;9.55;1.40;;;26.10;94.80;;;;;;5005998;28;20093;-43
2022/10/25 10:13:46;;;;;;;9.82;1.73;;;26.20;94.80;;;;;;5006829;28;20030;-48
2022/10/25 10:16:30;;;;;;;8.07;1.13;;;26.20;94.80;;;;;;5006749;28;20030;-46
2022/10/25 10:19:19;;;;;;;6.75;1.13;;;26.10;94.80;;;;;;5006763;28;20046;-47
2022/10/25 10:22:05;;;;;;;7.25;1.30;;;26.20;94.80;;;;;;5006298;28;20065;-40
2022/10/25 10:24:38;;;;;;;8.07;1.20;;;26.10;94.70;;;;;;5005793;28;20317;-43
2022/10/25 10:27:19;;;;;;;6.82;1.02;;;26.10;94.70;;;;;;5006135;28;20089;-51
2022/10/25 10:30:08;;;;;;;8.60;1.35;;;26.10;94.70;;;;;;5006449;28;20102;-43
2022/10/25 10:32:37;;;;;;;10.43;1.48;;;26.10;94.70;;;;;;5006235;28;20338;-45
2022/10/25 10:35:24;;;;;;;7.20;1.38;;;26.10;94.70;;;;;;5006314;28;20037;-43
2022/10/25 10:37:50;;;;;;;6.70;1.17;;;26.10;94.70;;;;;;5006444;28;20041;-48
2022/10/25 10:40:17;;;;;;;7.32;1.35;;;26.10;95.00;;;;;;5006426;28;20022;-47
2022/10/25 10:42:43;;;;;;;7.57;1.40;;;26.10;94.80;;;;;;5006211;28;20022;-51
2022/10/25 10:45:17;;;;;;;6.32;1.35;;;26.10;94.80;;;;;;5006015;28;20026;-47
2022/10/25 10:47:50;;;;;;;8.20;1.67;;;26.10;94.80;;;;;;5005968;28;20038;-46
2022/10/25 10:50:23;;;;;;;7.32;1.90;;;26.10;94.70;;;;;;5005852;28;20026;-42
2022/10/25 10:52:52;;;;;;;8.35;1.83;;;26.10;94.80;;;;;;5005915;28;20073;-42
2022/10/25 10:55:38;;;;;;;5.28;1.60;;;26.10;94.80;;;;;;5005698;28;20032;-42
2022/10/25 10:58:28;;;;;;;11.20;2.00;;;26.10;94.80;;;;;;5033911;28;20038;-42
2022/10/25 11:01:30;;;;;;;6.28;2.20;;;26.10;94.80;;;;;;4996932;28;20033;-46
2022/10/25 11:03:59;;;;;;;10.50;2.08;;;26.10;94.90;;;;;;5004145;28;20032;-47
2022/10/25 11:06:31;;;;;;;11.32;2.38;;;26.10;94.90;;;;;;5003715;28;20061;-43
2022/10/25 11:09:19;;;;;;;10.43;1.90;;;26.10;94.90;;;;;;5004971;28;20030;-44
2022/10/25 11:12:05;;;;;;;7.30;2.08;;;26.10;94.90;;;;;;5004257;28;20320;-46
2022/10/25 11:14:33;;;;;;;9.18;2.60;;;26.10;94.90;;;;;;5002163;28;20097;-47
2022/10/25 11:17:31;;;;;;;11.02;3.00;;;26.10;95.10;;;;;;5004506;28;20042;-45
2022/10/25 11:20:16;;;;;;;19.15;2.83;;;26.10;95.00;;;;;;5003099;28;20038;-45
2022/10/25 11:22:58;;;;;;;14.13;2.83;;;26.10;95.10;;;;;;5002567;28;20042;-43
2022/10/25 11:25:33;;;;;;;7.75;2.30;;;26.10;95.20;;;;;;5005385;28;20034;-44
2022/10/25 11:27:59;;;;;;;9.18;1.88;;;26.10;95.10;;;;;;5004805;28;20239;-46
2022/10/25 11:30:38;;;;;;;10.55;2.17;;;26.10;95.10;;;;;;5004541;28;20094;-48
2022/10/25 11:33:18;;;;;;;6.10;1.90;;;26.10;95.10;;;;;;5005259;28;20037;-43
2022/10/25 11:36:15;;;;;;;10.52;1.70;;;26.10;95.20;;;;;;5005153;28;20331;-44
2022/10/25 11:38:59;;;;;;;9.48;1.70;;;26.10;95.20;;;;;;5003626;28;20262;-42
2022/10/25 11:42:13;;;;;;;10.00;1.85;;;26.10;95.20;;;;;;5003341;28;20018;-42
2022/10/25 11:45:22;;;;;;;9.48;1.70;;;26.10;95.30;;;;;;4943386;29;20062;-51
2022/10/25 11:47:49;;;;;;;9.77;1.40;;;26.10;95.30;;;;;;4939908;29;20286;-51
2022/10/25 11:50:38;;;;;;;9.25;1.50;;;26.10;95.40;;;;;;4993671;28;20069;-43
2022/10/25 11:53:28;;;;;;;7.72;1.42;;;26.10;95.40;;;;;;5004343;28;20055;-59
2022/10/25 11:56:04;;;;;;;8.95;1.58;;;26.10;95.40;;;;;;5004895;28;20026;-49
2022/10/25 11:58:45;;;;;;;7.80;1.33;;;26.20;95.40;;;;;;5004820;28;20218;-51
2022/10/25 12:01:33;;;;;;;5.00;1.40;;;26.20;95.40;;;;;;5004826;28;20327;-46
2022/10/25 12:04:32;;;;;;;11.23;1.15;;;26.20;95.50;;;;;;5004964;28;20324;-49
2022/10/25 12:07:17;;;;;;;7.13;1.10;;;26.20;95.70;;;;;;4979717;28;20042;-46
2022/10/25 12:10:04;;;;;;;7.22;1.52;;;26.20;95.50;;;;;;5004801;28;20345;-45
2022/10/25 12:12:49;;;;;;;4.90;1.50;;;26.20;95.50;;;;;;5004502;28;20342;-49
2022/10/25 12:15:41;;;;;;;5.13;1.15;;;26.20;95.50;;;;;;5004758;28;20018;-46
2022/10/25 12:18:24;;;;;;;7.00;1.30;;;26.30;95.60;;;;;;5004914;28;20038;-42
2022/10/25 12:20:51;;;;;;;8.05;1.05;;;26.30;95.50;;;;;;5004529;28;20345;-42
2022/10/25 12:23:23;;;;;;;9.05;1.30;;;26.30;95.50;;;;;;5004821;28;20042;-43
2022/10/25 12:25:51;;;;;;;7.67;1.47;;;26.30;95.60;;;;;;5004482;28;20026;-43
2022/10/25 12:28:22;;;;;;;4.10;1.30;;;26.30;95.60;;;;;;5004161;28;20293;-45
2022/10/25 12:30:53;;;;;;;5.13;0.90;;;26.30;95.60;;;;;;5004383;28;20326;-44
2022/10/25 12:33:33;;;;;;;10.70;0.90;;;26.30;95.60;;;;;;5003949;28;20026;-46
2022/10/25 12:36:05;;;;;;;7.25;1.33;;;26.30;95.60;;;;;;5004339;28;20027;-44
2022/10/25 12:38:39;;;;;;;7.07;1.42;;;26.40;95.70;;;;;;5004757;28;20034;-45
2022/10/25 12:41:31;;;;;;;7.18;1.45;;;26.40;95.70;;;;;;5004346;28;20214;-48
2022/10/25 12:44:32;;;;;;;2.88;0.88;;;26.40;95.80;;;;;;5004586;28;20030;-50
2022/10/25 12:47:24;;;;;;;5.90;1.00;;;26.40;95.70;;;;;;5003035;28;20326;-46
2022/10/25 12:50:05;;;;;;;6.75;1.17;;;26.40;95.60;;;;;;5004380;28;20142;-47
2022/10/25 12:52:39;;;;;;;4.38;1.00;;;26.40;95.60;;;;;;5004359;28;20206;-50
2022/10/25 12:55:19;;;;;;;3.20;0.82;;;26.40;95.50;;;;;;5004273;28;20019;-43
2022/10/25 12:57:55;;;;;;;4.93;0.90;;;26.40;95.30;;;;;;5003990;28;20027;-43
2022/10/25 13:00:22;;;;;;;7.50;1.00;;;26.40;95.30;;;;;;5003990;28;20022;-43
2022/10/25 13:03:01;;;;;;;6.78;0.85;;;26.40;95.20;;;;;;5002936;28;20026;-47
2022/10/25 13:06:01;;;;;;;6.72;0.93;;;26.40;95.00;;;;;;5004244;28;20211;-50
2022/10/25 13:08:28;;;;;;;8.57;1.10;;;26.40;94.90;;;;;;5004238;28;20073;-44
2022/10/25 13:11:04;;;;;;;5.53;0.77;;;26.50;95.10;;;;;;5004080;28;20077;-41
2022/10/25 13:13:40;;;;;;;3.92;1.17;;;26.50;95.10;;;;;;5004079;28;20037;-45
2022/10/25 13:16:09;;;;;;;5.57;0.80;;;26.50;95.10;;;;;;5004076;28;20037;-44
2022/10/25 13:18:46;;;;;;;3.55;0.90;;;26.50;95.00;;;;;;5004107;28;20034;-46
2022/10/25 13:21:38;;;;;;;5.60;1.10;;;26.50;95.00;;;;;;5004096;28;20321;-48